createdAt,value
2017-07-06T00:00:46.845Z,1004.58
2017-07-06T00:01:46.884Z,1004.6
2017-07-06T00:02:46.922Z,1004.62
2017-07-06T00:03:46.962Z,1004.64
2017-07-06T00:04:47.000Z,1004.61
2017-07-06T00:05:47.039Z,1004.64
2017-07-06T00:06:47.078Z,1004.64
2017-07-06T00:07:47.115Z,1004.64
2017-07-06T00:08:47.155Z,1004.63
2017-07-06T00:09:47.195Z,1004.65
2017-07-06T00:10:47.233Z,1004.61
2017-07-06T00:11:47.272Z,1004.66
2017-07-06T00:12:47.311Z,1004.63
2017-07-06T00:13:47.353Z,1004.6
2017-07-06T00:14:47.390Z,1004.63
2017-07-06T00:15:47.429Z,1004.6
2017-07-06T00:16:47.466Z,1004.58
2017-07-06T00:17:47.505Z,1004.57
2017-07-06T00:18:47.543Z,1004.57
2017-07-06T00:19:47.582Z,1004.53
2017-07-06T00:20:47.622Z,1004.55
2017-07-06T00:21:47.662Z,1004.52
2017-07-06T00:22:47.699Z,1004.49
2017-07-06T00:23:47.738Z,1004.49
2017-07-06T00:24:47.776Z,1004.49
2017-07-06T00:25:47.816Z,1004.51
2017-07-06T00:26:47.855Z,1004.48
2017-07-06T00:27:47.894Z,1004.51
2017-07-06T00:28:47.934Z,1004.5
2017-07-06T00:29:47.972Z,1004.52
2017-07-06T00:30:48.011Z,1004.53
2017-07-06T00:31:48.050Z,1004.55
2017-07-06T00:32:48.089Z,1004.54
2017-07-06T00:33:48.125Z,1004.6
2017-07-06T00:34:48.166Z,1004.56
2017-07-06T00:35:48.210Z,1004.55
2017-07-06T00:36:48.243Z,1004.55
2017-07-06T00:37:48.282Z,1004.58
2017-07-06T00:38:48.320Z,1004.54
2017-07-06T00:39:48.360Z,1004.5
2017-07-06T00:40:48.398Z,1004.53
2017-07-06T00:41:48.438Z,1004.53
2017-07-06T00:42:48.475Z,1004.56
2017-07-06T00:43:48.515Z,1004.59
2017-07-06T00:44:48.553Z,1004.55
2017-07-06T00:45:48.591Z,1004.6
2017-07-06T00:46:48.631Z,1004.6
2017-07-06T00:47:48.668Z,1004.57
2017-07-06T00:48:48.707Z,1004.57
2017-07-06T00:49:48.746Z,1004.55
2017-07-06T00:50:48.784Z,1004.59
2017-07-06T00:51:48.823Z,1004.54
2017-07-06T00:52:48.862Z,1004.53
2017-07-06T00:53:48.901Z,1004.55
2017-07-06T00:54:48.940Z,1004.55
2017-07-06T00:55:48.977Z,1004.55
2017-07-06T00:56:49.018Z,1004.55
2017-07-06T00:57:49.056Z,1004.57
2017-07-06T00:58:49.093Z,1004.59
2017-07-06T00:59:49.132Z,1004.56
2017-07-06T01:00:49.172Z,1004.58
2017-07-06T01:01:49.212Z,1004.56
2017-07-06T01:02:49.248Z,1004.51
2017-07-06T01:03:49.288Z,1004.5
2017-07-06T01:04:49.327Z,1004.49
2017-07-06T01:05:49.366Z,1004.43
2017-07-06T01:06:49.403Z,1004.45
2017-07-06T01:07:49.442Z,1004.42
2017-07-06T01:08:49.482Z,1004.42
2017-07-06T01:09:49.519Z,1004.44
2017-07-06T01:10:49.558Z,1004.4
2017-07-06T01:11:49.596Z,1004.44
2017-07-06T01:12:49.635Z,1004.39
2017-07-06T01:13:49.676Z,1004.33
2017-07-06T01:14:49.713Z,1004.35
2017-07-06T01:15:49.752Z,1004.34
2017-07-06T01:16:49.791Z,1004.34
2017-07-06T01:17:49.828Z,1004.32
2017-07-06T01:18:49.867Z,1004.3
2017-07-06T01:19:49.905Z,1004.3
2017-07-06T01:20:49.944Z,1004.32
2017-07-06T01:21:49.982Z,1004.41
2017-07-06T01:22:50.020Z,1004.39
2017-07-06T01:23:50.061Z,1004.4
2017-07-06T01:24:50.098Z,1004.41
2017-07-06T01:25:50.137Z,1004.38
2017-07-06T01:26:50.176Z,1004.38
2017-07-06T01:27:50.214Z,1004.38
2017-07-06T01:28:50.253Z,1004.37
2017-07-06T01:29:50.292Z,1004.35
2017-07-06T01:30:50.332Z,1004.39
2017-07-06T01:31:50.368Z,1004.38
2017-07-06T01:32:50.407Z,1004.41
2017-07-06T01:33:50.445Z,1004.41
2017-07-06T01:34:50.485Z,1004.41
2017-07-06T01:35:50.522Z,1004.45
2017-07-06T01:36:50.561Z,1004.48
2017-07-06T01:37:50.600Z,1004.47
2017-07-06T01:38:50.639Z,1004.49
2017-07-06T01:39:50.677Z,1004.55
2017-07-06T01:40:50.716Z,1004.54
2017-07-06T01:41:50.753Z,1004.52
2017-07-06T01:42:50.792Z,1004.56
2017-07-06T01:43:50.831Z,1004.56
2017-07-06T01:44:50.869Z,1004.52
2017-07-06T01:45:50.907Z,1004.56
2017-07-06T01:46:50.950Z,1004.57
2017-07-06T01:47:50.984Z,1004.58
2017-07-06T01:48:51.023Z,1004.55
2017-07-06T01:49:51.062Z,1004.56
2017-07-06T01:50:51.100Z,1004.57
2017-07-06T01:51:51.138Z,1004.55
2017-07-06T01:52:51.178Z,1004.56
2017-07-06T01:53:51.215Z,1004.58
2017-07-06T01:54:51.255Z,1004.55
2017-07-06T01:55:51.293Z,1004.59
2017-07-06T01:56:51.332Z,1004.6
2017-07-06T01:57:51.369Z,1004.59
2017-07-06T01:58:51.408Z,1004.59
2017-07-06T01:59:51.448Z,1004.58
2017-07-06T02:00:51.488Z,1004.56
2017-07-06T02:01:51.525Z,1004.59
2017-07-06T02:02:51.563Z,1004.53
2017-07-06T02:03:51.602Z,1004.57
2017-07-06T02:04:51.639Z,1004.57
2017-07-06T02:05:51.680Z,1004.55
2017-07-06T02:06:51.717Z,1004.56
2017-07-06T02:07:51.755Z,1004.53
2017-07-06T02:08:51.795Z,1004.52
2017-07-06T02:09:51.833Z,1004.55
2017-07-06T02:10:51.872Z,1004.58
2017-07-06T02:11:51.908Z,1004.54
2017-07-06T02:12:51.948Z,1004.52
2017-07-06T02:13:51.987Z,1004.56
2017-07-06T02:14:52.025Z,1004.56
2017-07-06T02:15:52.062Z,1004.54
2017-07-06T02:16:52.101Z,1004.54
2017-07-06T02:17:52.140Z,1004.57
2017-07-06T02:18:52.179Z,1004.52
2017-07-06T02:19:52.217Z,1004.58
2017-07-06T02:20:52.255Z,1004.52
2017-07-06T02:21:52.293Z,1004.53
2017-07-06T02:22:52.330Z,1004.56
2017-07-06T02:23:52.369Z,1004.54
2017-07-06T02:24:52.410Z,1004.59
2017-07-06T02:25:52.446Z,1004.6
2017-07-06T02:26:52.485Z,1004.61
2017-07-06T02:27:52.524Z,1004.6
2017-07-06T02:28:52.562Z,1004.61
2017-07-06T02:29:52.600Z,1004.57
2017-07-06T02:30:52.639Z,1004.57
2017-07-06T02:31:52.677Z,1004.57
2017-07-06T02:32:52.716Z,1004.58
2017-07-06T02:33:52.754Z,1004.58
2017-07-06T02:34:52.791Z,1004.6
2017-07-06T02:35:52.831Z,1004.6
2017-07-06T02:36:52.869Z,1004.59
2017-07-06T02:37:52.906Z,1004.64
2017-07-06T02:38:52.947Z,1004.63
2017-07-06T02:39:52.985Z,1004.59
2017-07-06T02:40:53.023Z,1004.63
2017-07-06T02:41:53.061Z,1004.6
2017-07-06T02:42:53.099Z,1004.64
2017-07-06T02:43:53.140Z,1004.6
2017-07-06T02:44:53.175Z,1004.65
2017-07-06T02:45:53.214Z,1004.64
2017-07-06T02:46:53.252Z,1004.66
2017-07-06T02:47:53.292Z,1004.69
2017-07-06T02:48:53.329Z,1004.72
2017-07-06T02:49:53.368Z,1004.66
2017-07-06T02:50:53.406Z,1004.67
2017-07-06T02:51:53.445Z,1004.67
2017-07-06T02:52:53.482Z,1004.7
2017-07-06T02:53:53.521Z,1004.67
2017-07-06T02:54:53.560Z,1004.67
2017-07-06T02:55:53.600Z,1004.71
2017-07-06T02:56:53.636Z,1004.67
2017-07-06T02:57:53.675Z,1004.68
2017-07-06T02:58:53.713Z,1004.64
2017-07-06T02:59:53.751Z,1004.67
2017-07-06T03:00:53.789Z,1004.67
2017-07-06T03:01:53.832Z,1004.65
2017-07-06T03:02:53.867Z,1004.66
2017-07-06T03:03:53.904Z,1004.7
2017-07-06T03:04:53.942Z,1004.72
2017-07-06T03:05:53.981Z,1004.71
2017-07-06T03:06:54.019Z,1004.71
2017-07-06T03:07:54.055Z,1004.72
2017-07-06T03:08:54.096Z,1004.72
2017-07-06T03:09:54.134Z,1004.73
2017-07-06T03:10:54.176Z,1004.76
2017-07-06T03:11:54.215Z,1004.77
2017-07-06T03:12:54.248Z,1004.82
2017-07-06T03:13:54.287Z,1004.8
2017-07-06T03:14:54.325Z,1004.87
2017-07-06T03:15:54.363Z,1004.85
2017-07-06T03:16:54.401Z,1004.88
2017-07-06T03:17:54.439Z,1004.87
2017-07-06T03:18:54.478Z,1004.86
2017-07-06T03:19:54.516Z,1004.82
2017-07-06T03:20:54.555Z,1004.86
2017-07-06T03:21:54.592Z,1004.83
2017-07-06T03:22:54.631Z,1004.8
2017-07-06T03:23:54.670Z,1004.81
2017-07-06T03:24:54.708Z,1004.83
2017-07-06T03:25:54.747Z,1004.81
2017-07-06T03:26:54.785Z,1004.79
2017-07-06T03:27:54.823Z,1004.83
2017-07-06T03:28:54.860Z,1004.8
2017-07-06T03:29:54.899Z,1004.84
2017-07-06T03:30:54.939Z,1004.8
2017-07-06T03:31:54.977Z,1004.83
2017-07-06T03:32:55.015Z,1004.82
2017-07-06T03:33:55.054Z,1004.85
2017-07-06T03:34:55.093Z,1004.84
2017-07-06T03:35:55.131Z,1004.85
2017-07-06T03:36:55.169Z,1004.92
2017-07-06T03:37:55.214Z,1004.92
2017-07-06T03:38:55.247Z,1004.94
2017-07-06T03:39:55.285Z,1004.95
2017-07-06T03:40:55.323Z,1004.96
2017-07-06T03:41:55.363Z,1004.96
2017-07-06T03:42:55.402Z,1004.98
2017-07-06T03:43:55.438Z,1004.94
2017-07-06T03:44:55.477Z,1004.93
2017-07-06T03:45:55.517Z,1004.88
2017-07-06T03:46:55.554Z,1004.88
2017-07-06T03:47:55.593Z,1004.84
2017-07-06T03:48:55.632Z,1004.89
2017-07-06T03:49:55.671Z,1004.86
2017-07-06T03:50:55.709Z,1004.87
2017-07-06T03:51:55.748Z,1004.82
2017-07-06T03:52:55.787Z,1004.86
2017-07-06T03:53:55.826Z,1004.87
2017-07-06T03:54:55.864Z,1004.91
2017-07-06T03:55:55.904Z,1004.89
2017-07-06T03:56:55.943Z,1004.87
2017-07-06T03:57:55.980Z,1004.84
2017-07-06T03:58:56.020Z,1004.82
2017-07-06T03:59:56.060Z,1004.84
2017-07-06T04:00:56.099Z,1004.8
2017-07-06T04:01:56.136Z,1004.84
2017-07-06T04:02:56.176Z,1004.86
2017-07-06T04:03:56.215Z,1004.88
2017-07-06T04:04:56.254Z,1004.89
2017-07-06T04:05:56.293Z,1004.91
2017-07-06T04:06:56.332Z,1004.96
2017-07-06T04:07:56.372Z,1004.95
2017-07-06T04:08:56.409Z,1004.95
2017-07-06T04:09:56.450Z,1004.9
2017-07-06T04:10:56.490Z,1004.91
2017-07-06T04:11:56.529Z,1004.89
2017-07-06T04:12:56.569Z,1004.89
2017-07-06T04:13:56.609Z,1004.93
2017-07-06T04:14:56.648Z,1004.9
2017-07-06T04:15:56.689Z,1004.9
2017-07-06T04:16:56.729Z,1004.87
2017-07-06T04:17:56.773Z,1004.86
2017-07-06T04:18:56.810Z,1004.9
2017-07-06T04:19:56.851Z,1004.93
2017-07-06T04:20:56.888Z,1004.88
2017-07-06T04:21:56.929Z,1004.94
2017-07-06T04:22:56.972Z,1004.97
2017-07-06T04:23:57.011Z,1004.98
2017-07-06T04:24:57.053Z,1004.97
2017-07-06T04:25:57.094Z,1005.04
2017-07-06T04:26:57.135Z,1005.01
2017-07-06T04:27:57.176Z,1005.05
2017-07-06T04:28:57.217Z,1005.02
2017-07-06T04:29:57.259Z,1005.02
2017-07-06T04:30:57.300Z,1005.04
2017-07-06T04:31:57.342Z,1005.07
2017-07-06T04:32:57.383Z,1005.06
2017-07-06T04:33:57.425Z,1005.09
2017-07-06T04:34:57.471Z,1005.09
2017-07-06T04:35:57.508Z,1005.08
2017-07-06T04:36:57.550Z,1005.12
2017-07-06T04:37:57.593Z,1005.08
2017-07-06T04:38:57.635Z,1005.1
2017-07-06T04:39:57.677Z,1005.08
2017-07-06T04:40:57.720Z,1005.08
2017-07-06T04:41:57.761Z,1005.06
2017-07-06T04:42:57.804Z,1005.08
2017-07-06T04:43:57.848Z,1005.12
2017-07-06T04:44:57.889Z,1005.12
2017-07-06T04:45:57.931Z,1005.14
2017-07-06T04:46:57.975Z,1005.15
2017-07-06T04:47:58.016Z,1005.16
2017-07-06T04:48:58.060Z,1005.18
2017-07-06T04:49:58.102Z,1005.18
2017-07-06T04:50:58.144Z,1005.15
2017-07-06T04:51:58.186Z,1005.16
2017-07-06T04:52:58.228Z,1005.18
2017-07-06T04:53:58.270Z,1005.17
2017-07-06T04:54:58.312Z,1005.15
2017-07-06T04:55:58.355Z,1005.16
2017-07-06T04:56:58.396Z,1005.15
2017-07-06T04:57:58.440Z,1005.16
2017-07-06T04:58:58.482Z,1005.16
2017-07-06T04:59:58.525Z,1005.18
2017-07-06T05:00:58.570Z,1005.22
2017-07-06T05:01:58.610Z,1005.16
2017-07-06T05:02:58.653Z,1005.17
2017-07-06T05:03:58.696Z,1005.16
2017-07-06T05:04:58.739Z,1005.15
2017-07-06T05:05:58.782Z,1005.17
2017-07-06T05:06:58.824Z,1005.21
2017-07-06T05:07:58.867Z,1005.19
2017-07-06T05:08:58.912Z,1005.2
2017-07-06T05:09:58.951Z,1005.19
2017-07-06T05:10:58.994Z,1005.28
2017-07-06T05:11:59.035Z,1005.28
2017-07-06T05:12:59.079Z,1005.27
2017-07-06T05:13:59.120Z,1005.29
2017-07-06T05:14:59.162Z,1005.19
2017-07-06T05:15:59.203Z,1005.23
2017-07-06T05:16:59.246Z,1005.27
2017-07-06T05:17:59.288Z,1005.28
2017-07-06T05:18:59.329Z,1005.27
2017-07-06T05:19:59.372Z,1005.28
2017-07-06T05:20:59.413Z,1005.25
2017-07-06T05:21:59.454Z,1005.23
2017-07-06T05:22:59.499Z,1005.3
2017-07-06T05:23:59.539Z,1005.29
2017-07-06T05:24:59.580Z,1005.29
2017-07-06T05:25:59.622Z,1005.26
2017-07-06T05:26:59.714Z,1005.29
2017-07-06T05:27:59.706Z,1005.25
2017-07-06T05:28:59.748Z,1005.27
2017-07-06T05:29:59.789Z,1005.28
2017-07-06T05:30:59.830Z,1005.28
2017-07-06T05:31:59.871Z,1005.27
2017-07-06T05:32:59.911Z,1005.31
2017-07-06T05:33:59.954Z,1005.33
2017-07-06T05:34:59.995Z,1005.3
2017-07-06T05:36:00.037Z,1005.37
2017-07-06T05:37:00.077Z,1005.37
2017-07-06T05:38:00.120Z,1005.37
2017-07-06T05:39:00.162Z,1005.35
2017-07-06T05:40:00.203Z,1005.36
2017-07-06T05:41:00.246Z,1005.38
2017-07-06T05:42:00.284Z,1005.44
2017-07-06T05:43:00.325Z,1005.43
2017-07-06T05:44:00.367Z,1005.45
2017-07-06T05:45:00.410Z,1005.43
2017-07-06T05:46:00.451Z,1005.47
2017-07-06T05:47:00.494Z,1005.43
2017-07-06T05:48:00.536Z,1005.47
2017-07-06T05:49:00.581Z,1005.5
2017-07-06T05:50:00.623Z,1005.45
2017-07-06T05:51:00.667Z,1005.49
2017-07-06T05:52:00.710Z,1005.46
2017-07-06T05:53:00.756Z,1005.46
2017-07-06T05:54:00.799Z,1005.47
2017-07-06T05:55:00.842Z,1005.46
2017-07-06T05:56:00.887Z,1005.54
2017-07-06T05:57:00.934Z,1005.47
2017-07-06T05:58:00.977Z,1005.54
2017-07-06T05:59:01.022Z,1005.56
2017-07-06T06:00:01.066Z,1005.53
2017-07-06T06:01:01.113Z,1005.53
2017-07-06T06:02:01.158Z,1005.51
2017-07-06T06:03:01.204Z,1005.51
2017-07-06T06:04:01.250Z,1005.48
2017-07-06T06:05:01.297Z,1005.49
2017-07-06T06:06:01.342Z,1005.48
2017-07-06T06:07:01.389Z,1005.51
2017-07-06T06:08:01.434Z,1005.46
2017-07-06T06:09:01.483Z,1005.48
2017-07-06T06:10:01.559Z,1005.55
2017-07-06T06:11:01.626Z,1005.52
2017-07-06T06:12:01.622Z,1005.5
2017-07-06T06:13:01.669Z,1005.48
2017-07-06T06:14:01.716Z,1005.48
2017-07-06T06:15:01.763Z,1005.5
2017-07-06T06:16:01.811Z,1005.53
2017-07-06T06:17:01.860Z,1005.57
2017-07-06T06:18:01.909Z,1005.6
2017-07-06T06:19:01.951Z,1005.57
2017-07-06T06:20:01.998Z,1005.57
2017-07-06T06:21:02.045Z,1005.66
2017-07-06T06:22:02.092Z,1005.58
2017-07-06T06:23:02.140Z,1005.63
2017-07-06T06:24:02.188Z,1005.63
2017-07-06T06:25:02.236Z,1005.61
2017-07-06T06:26:02.284Z,1005.64
2017-07-06T06:27:02.334Z,1005.61
2017-07-06T06:28:02.380Z,1005.57
2017-07-06T06:29:02.432Z,1005.63
2017-07-06T06:30:02.481Z,1005.56
2017-07-06T06:31:02.530Z,1005.64
2017-07-06T06:32:02.581Z,1005.68
2017-07-06T06:33:02.629Z,1005.69
2017-07-06T06:34:02.680Z,1005.69
2017-07-06T06:35:02.729Z,1005.63
2017-07-06T06:36:02.779Z,1005.74
2017-07-06T06:37:02.831Z,1005.77
2017-07-06T06:38:02.882Z,1005.69
2017-07-06T06:39:02.930Z,1005.69
2017-07-06T06:40:02.981Z,1005.67
2017-07-06T06:41:03.031Z,1005.76
2017-07-06T06:42:03.082Z,1005.81
2017-07-06T06:43:03.131Z,1005.72
2017-07-06T06:44:03.182Z,1005.73
2017-07-06T06:45:03.231Z,1005.66
2017-07-06T06:46:03.281Z,1005.64
2017-07-06T06:47:03.379Z,1005.74
2017-07-06T06:48:03.381Z,1005.65
2017-07-06T06:49:03.432Z,1005.69
2017-07-06T06:50:03.480Z,1005.68
2017-07-06T06:51:03.529Z,1005.64
2017-07-06T06:52:03.578Z,1005.71
2017-07-06T06:53:03.628Z,1005.76
2017-07-06T06:54:03.684Z,1005.62
2017-07-06T06:55:03.725Z,1005.66
2017-07-06T06:56:03.773Z,1005.7
2017-07-06T06:57:03.823Z,1005.66
2017-07-06T06:58:03.873Z,1005.65
2017-07-06T06:59:03.933Z,1005.68
2017-07-06T07:00:03.973Z,1005.66
2017-07-06T07:01:04.022Z,1005.68
2017-07-06T07:02:04.072Z,1005.74
2017-07-06T07:03:04.124Z,1005.75
2017-07-06T07:04:04.173Z,1005.73
2017-07-06T07:05:04.224Z,1005.73
2017-07-06T07:06:04.275Z,1005.73
2017-07-06T07:07:04.326Z,1005.76
2017-07-06T07:08:04.381Z,1005.76
2017-07-06T07:09:04.431Z,1005.73
2017-07-06T07:10:04.483Z,1005.74
2017-07-06T07:11:04.536Z,1005.78
2017-07-06T07:12:04.587Z,1005.79
2017-07-06T07:13:04.641Z,1005.78
2017-07-06T07:14:04.695Z,1005.8
2017-07-06T07:15:04.748Z,1005.8
2017-07-06T07:16:04.801Z,1005.85
2017-07-06T07:17:04.856Z,1005.84
2017-07-06T07:18:04.910Z,1005.87
2017-07-06T07:19:04.963Z,1005.86
2017-07-06T07:20:05.019Z,1005.85
2017-07-06T07:21:05.073Z,1005.85
2017-07-06T07:22:05.126Z,1005.87
2017-07-06T07:23:05.181Z,1005.87
2017-07-06T07:24:05.236Z,1005.84
2017-07-06T07:25:05.292Z,1005.82
2017-07-06T07:26:05.347Z,1005.83
2017-07-06T07:27:05.401Z,1005.85
2017-07-06T07:28:05.457Z,1005.84
2017-07-06T07:29:05.516Z,1005.82
2017-07-06T07:30:05.566Z,1005.77
2017-07-06T07:31:05.620Z,1005.78
2017-07-06T07:32:05.679Z,1005.76
2017-07-06T07:33:05.728Z,1005.83
2017-07-06T07:34:05.781Z,1005.8
2017-07-06T07:35:05.837Z,1005.78
2017-07-06T07:36:05.888Z,1005.79
2017-07-06T07:37:05.942Z,1005.79
2017-07-06T07:38:05.993Z,1005.77
2017-07-06T07:39:06.046Z,1005.78
2017-07-06T07:40:06.098Z,1005.83
2017-07-06T07:41:06.150Z,1005.74
2017-07-06T07:42:06.202Z,1005.73
2017-07-06T07:43:06.253Z,1005.74
2017-07-06T07:44:06.306Z,1005.87
2017-07-06T07:45:06.357Z,1005.73
2017-07-06T07:46:06.408Z,1005.72
2017-07-06T07:47:06.460Z,1005.75
2017-07-06T07:48:06.513Z,1005.73
2017-07-06T07:49:06.562Z,1005.76
2017-07-06T07:50:06.614Z,1005.73
2017-07-06T07:51:06.665Z,1005.85
2017-07-06T07:52:06.715Z,1005.81
2017-07-06T07:53:06.767Z,1005.84
2017-07-06T07:54:06.822Z,1005.81
2017-07-06T07:55:06.872Z,1005.82
2017-07-06T07:56:06.922Z,1005.85
2017-07-06T07:57:06.976Z,1005.79
2017-07-06T07:58:07.030Z,1005.84
2017-07-06T07:59:07.082Z,1005.83
2017-07-06T08:00:07.134Z,1005.87
2017-07-06T08:01:07.499Z,1005.89
2017-07-06T08:02:07.242Z,1005.9
2017-07-06T08:03:08.079Z,1005.98
2017-07-06T08:04:08.032Z,1005.93
2017-07-06T08:05:07.405Z,1005.99
2017-07-06T08:06:07.990Z,1005.89
2017-07-06T08:07:07.515Z,1005.88
2017-07-06T08:08:07.569Z,1005.86
2017-07-06T08:09:07.624Z,1005.85
2017-07-06T08:10:07.682Z,1005.93
2017-07-06T08:11:07.737Z,1005.9
2017-07-06T08:12:07.793Z,1005.95
2017-07-06T08:13:07.849Z,1005.91
2017-07-06T08:14:07.905Z,1005.89
2017-07-06T08:15:07.960Z,1005.88
2017-07-06T08:16:08.018Z,1005.94
2017-07-06T08:17:08.076Z,1005.94
2017-07-06T08:18:08.131Z,1005.88
2017-07-06T08:19:08.189Z,1005.92
2017-07-06T08:20:08.246Z,1005.89
2017-07-06T08:21:08.311Z,1005.88
2017-07-06T08:22:08.361Z,1005.94
2017-07-06T08:23:08.418Z,1005.86
2017-07-06T08:24:08.475Z,1005.94
2017-07-06T08:25:08.531Z,1005.92
2017-07-06T08:26:08.589Z,1005.95
2017-07-06T08:27:08.647Z,1005.93
2017-07-06T08:28:08.704Z,1005.93
2017-07-06T08:29:08.761Z,1005.84
2017-07-06T08:30:08.818Z,1005.94
2017-07-06T08:31:08.876Z,1005.87
2017-07-06T08:32:08.931Z,1005.86
2017-07-06T08:33:08.991Z,1005.89
2017-07-06T08:34:09.048Z,1005.9
2017-07-06T08:35:09.104Z,1005.87
2017-07-06T08:36:09.163Z,1005.86
2017-07-06T08:37:09.218Z,1005.87
2017-07-06T08:38:09.277Z,1005.87
2017-07-06T08:39:09.334Z,1005.85
2017-07-06T08:40:09.391Z,1005.85
2017-07-06T08:41:09.449Z,1005.8
2017-07-06T08:42:09.507Z,1005.92
2017-07-06T08:43:09.564Z,1005.77
2017-07-06T08:44:09.622Z,1005.86
2017-07-06T08:45:09.680Z,1005.89
2017-07-06T08:46:09.736Z,1005.74
2017-07-06T08:47:09.793Z,1005.82
2017-07-06T08:48:09.850Z,1005.82
2017-07-06T08:49:09.907Z,1005.83
2017-07-06T08:50:09.964Z,1005.8
2017-07-06T08:51:10.020Z,1005.82
2017-07-06T08:52:10.083Z,1005.79
2017-07-06T08:53:10.136Z,1005.86
2017-07-06T08:54:10.190Z,1005.84
2017-07-06T08:55:10.248Z,1005.86
2017-07-06T08:56:10.305Z,1005.78
2017-07-06T08:57:10.362Z,1005.86
2017-07-06T08:58:10.430Z,1005.87
2017-07-06T08:59:10.474Z,1005.89
2017-07-06T09:00:10.531Z,1005.85
2017-07-06T09:01:11.335Z,1005.87
2017-07-06T09:02:10.645Z,1005.88
2017-07-06T09:03:10.701Z,1005.93
2017-07-06T09:04:10.759Z,1005.88
2017-07-06T09:05:10.815Z,1005.97
2017-07-06T09:06:10.873Z,1005.81
2017-07-06T09:07:10.930Z,1005.74
2017-07-06T09:08:10.987Z,1005.69
2017-07-06T09:09:11.045Z,1005.81
2017-07-06T09:10:11.103Z,1005.59
2017-07-06T09:11:11.160Z,1005.63
2017-07-06T09:12:11.225Z,1005.64
2017-07-06T09:13:11.267Z,1005.58
2017-07-06T09:14:11.324Z,1005.58
2017-07-06T09:15:11.379Z,1005.59
2017-07-06T09:16:11.432Z,1005.67
2017-07-06T09:17:11.488Z,1005.68
2017-07-06T09:18:11.542Z,1005.65
2017-07-06T09:19:11.598Z,1005.66
2017-07-06T09:20:11.649Z,1005.53
2017-07-06T09:21:11.706Z,1005.57
2017-07-06T09:22:11.758Z,1005.59
2017-07-06T09:23:11.811Z,1005.54
2017-07-06T09:24:11.865Z,1005.76
2017-07-06T09:25:11.918Z,1005.81
2017-07-06T09:26:11.973Z,1005.84
2017-07-06T09:27:12.024Z,1005.81
2017-07-06T09:28:12.079Z,1005.71
2017-07-06T09:29:12.134Z,1005.77
2017-07-06T09:30:12.188Z,1005.83
2017-07-06T09:31:12.241Z,1005.8
2017-07-06T09:32:12.295Z,1005.67
2017-07-06T09:33:12.350Z,1005.76
2017-07-06T09:34:12.405Z,1005.7
2017-07-06T09:35:12.458Z,1005.8
2017-07-06T09:36:12.514Z,1005.64
2017-07-06T09:37:12.569Z,1005.58
2017-07-06T09:38:12.624Z,1005.56
2017-07-06T09:39:12.678Z,1005.6
2017-07-06T09:40:12.735Z,1005.5
2017-07-06T09:41:12.790Z,1005.53
2017-07-06T09:42:12.845Z,1005.5
2017-07-06T09:43:12.899Z,1005.56
2017-07-06T09:44:12.953Z,1005.52
2017-07-06T09:45:13.008Z,1005.56
2017-07-06T09:46:13.062Z,1005.49
2017-07-06T09:47:13.115Z,1005.42
2017-07-06T09:48:13.170Z,1005.65
2017-07-06T09:49:13.223Z,1005.43
2017-07-06T09:50:13.278Z,1005.61
2017-07-06T09:51:13.331Z,1005.58
2017-07-06T09:52:13.386Z,1005.4
2017-07-06T09:53:13.439Z,1005.39
2017-07-06T09:54:13.494Z,1005.34
2017-07-06T09:55:13.548Z,1005.56
2017-07-06T09:56:13.603Z,1005.47
2017-07-06T09:57:13.657Z,1005.51
2017-07-06T09:58:13.713Z,1005.36
2017-07-06T09:59:13.767Z,1005.47
2017-07-06T10:00:13.820Z,1005.46
2017-07-06T10:01:13.875Z,1005.47
2017-07-06T10:02:13.931Z,1005.42
2017-07-06T10:03:13.986Z,1005.26
2017-07-06T10:04:14.041Z,1005.33
2017-07-06T10:05:14.096Z,1005.44
2017-07-06T10:06:14.151Z,1005.42
2017-07-06T10:07:14.206Z,1005.43
2017-07-06T10:08:14.262Z,1005.43
2017-07-06T10:09:14.318Z,1005.21
2017-07-06T10:10:14.374Z,1005.19
2017-07-06T10:11:14.430Z,1005.24
2017-07-06T10:12:14.484Z,1005.36
2017-07-06T10:13:14.540Z,1005.4
2017-07-06T10:14:14.596Z,1005.4
2017-07-06T10:15:14.651Z,1005.49
2017-07-06T10:16:14.707Z,1005.46
2017-07-06T10:17:14.762Z,1005.44
2017-07-06T10:18:14.816Z,1005.47
2017-07-06T10:19:14.873Z,1005.43
2017-07-06T10:20:14.929Z,1005.41
2017-07-06T10:21:14.985Z,1005.43
2017-07-06T10:22:15.046Z,1005.44
2017-07-06T10:23:15.097Z,1005.26
2017-07-06T10:24:15.154Z,1005.4
2017-07-06T10:25:15.211Z,1005.24
2017-07-06T10:26:15.266Z,1005.32
2017-07-06T10:27:15.326Z,1005.28
2017-07-06T10:28:15.378Z,1005.35
2017-07-06T10:29:15.433Z,1005.36
2017-07-06T10:30:15.488Z,1005.37
2017-07-06T10:31:15.544Z,1005.38
2017-07-06T10:32:15.601Z,1005.36
2017-07-06T10:33:15.655Z,1005.36
2017-07-06T10:34:15.710Z,1005.37
2017-07-06T10:35:15.768Z,1005.4
2017-07-06T10:36:15.824Z,1005.4
2017-07-06T10:37:15.879Z,1005.41
2017-07-06T10:38:15.936Z,1005.33
2017-07-06T10:39:15.993Z,1005.4
2017-07-06T10:40:16.048Z,1005.41
2017-07-06T10:41:16.105Z,1005.4
2017-07-06T10:42:16.162Z,1005.38
2017-07-06T10:43:16.219Z,1005.39
2017-07-06T10:44:16.277Z,1005.38
2017-07-06T10:45:16.335Z,1005.39
2017-07-06T10:46:16.391Z,1005.38
2017-07-06T10:47:16.448Z,1005.4
2017-07-06T10:48:16.505Z,1005.39
2017-07-06T10:49:16.562Z,1005.35
2017-07-06T10:50:16.622Z,1005.41
2017-07-06T10:51:16.678Z,1005.4
2017-07-06T10:52:16.739Z,1005.38
2017-07-06T10:53:16.795Z,1005.33
2017-07-06T10:54:16.854Z,1005.34
2017-07-06T10:55:16.911Z,1005.33
2017-07-06T10:56:16.970Z,1005.26
2017-07-06T10:57:17.027Z,1005.11
2017-07-06T10:58:17.086Z,1005.18
2017-07-06T10:59:17.143Z,1005.34
2017-07-06T11:00:17.199Z,1005.35
2017-07-06T11:01:17.262Z,1005.28
2017-07-06T11:02:17.313Z,1005.33
2017-07-06T11:03:17.376Z,1005.17
2017-07-06T11:04:17.425Z,1005.2
2017-07-06T11:05:17.481Z,1005.26
2017-07-06T11:06:17.538Z,1005.22
2017-07-06T11:07:17.594Z,1005.21
2017-07-06T11:08:17.651Z,1005.19
2017-07-06T11:09:17.705Z,1005.2
2017-07-06T11:10:17.761Z,1005.18
2017-07-06T11:11:17.815Z,1005.18
2017-07-06T11:12:17.871Z,1005.13
2017-07-06T11:13:17.922Z,1005.09
2017-07-06T11:14:17.976Z,1005.09
2017-07-06T11:15:18.029Z,1005.09
2017-07-06T11:16:18.081Z,1005.11
2017-07-06T11:17:18.134Z,1005.08
2017-07-06T11:18:18.185Z,1005.11
2017-07-06T11:19:18.238Z,1005.12
2017-07-06T11:20:18.289Z,1005.11
2017-07-06T11:21:18.338Z,1005.09
2017-07-06T11:22:18.388Z,1005.07
2017-07-06T11:23:18.437Z,1005.03
2017-07-06T11:24:18.486Z,1005.04
2017-07-06T11:25:18.537Z,1005.02
2017-07-06T11:26:18.585Z,1005.02
2017-07-06T11:27:18.825Z,1005.04
2017-07-06T11:28:18.685Z,1005.02
2017-07-06T11:29:18.733Z,1004.95
2017-07-06T11:30:18.784Z,1004.94
2017-07-06T11:31:18.831Z,1004.94
2017-07-06T11:32:18.881Z,1004.92
2017-07-06T11:33:18.930Z,1004.96
2017-07-06T11:34:18.981Z,1004.93
2017-07-06T11:35:19.034Z,1004.9
2017-07-06T11:36:19.076Z,1004.9
2017-07-06T11:37:19.125Z,1004.87
2017-07-06T11:38:19.174Z,1004.87
2017-07-06T11:39:19.222Z,1004.9
2017-07-06T11:40:19.271Z,1004.87
2017-07-06T11:41:19.320Z,1004.91
2017-07-06T11:42:19.368Z,1004.87
2017-07-06T11:43:19.416Z,1004.88
2017-07-06T11:44:19.466Z,1004.88
2017-07-06T11:45:19.513Z,1004.84
2017-07-06T11:46:19.561Z,1004.84
2017-07-06T11:47:19.609Z,1004.82
2017-07-06T11:48:19.658Z,1004.85
2017-07-06T11:49:19.712Z,1004.81
2017-07-06T11:50:19.754Z,1004.79
2017-07-06T11:51:19.802Z,1004.78
2017-07-06T11:52:19.851Z,1004.78
2017-07-06T11:53:19.897Z,1004.76
2017-07-06T11:54:19.945Z,1004.76
2017-07-06T11:55:19.994Z,1004.79
2017-07-06T11:56:20.042Z,1004.78
2017-07-06T11:57:20.090Z,1004.76
2017-07-06T11:58:20.137Z,1004.79
2017-07-06T11:59:20.186Z,1004.8
2017-07-06T12:00:20.234Z,1004.77
2017-07-06T12:01:20.281Z,1004.77
2017-07-06T12:02:20.330Z,1004.82
2017-07-06T12:03:20.376Z,1004.83
2017-07-06T12:04:20.423Z,1004.75
2017-07-06T12:05:20.472Z,1004.81
2017-07-06T12:06:20.519Z,1004.78
2017-07-06T12:07:20.567Z,1004.77
2017-07-06T12:08:20.614Z,1004.81